sensor_id;sensor_type;location;lat;lon;timestamp;P1;durP1;ratioP1;P2;durP2;ratioP2
27706;SDS011;36332;51.384;0.040;2023-02-13T00:00:53;94.10;;;44.00;;
27706;SDS011;36332;51.384;0.040;2023-02-13T00:03:21;91.35;;;41.47;;
27706;SDS011;36332;51.384;0.040;2023-02-13T00:05:49;85.75;;;41.40;;
27706;SDS011;36332;51.384;0.040;2023-02-13T00:08:16;89.25;;;43.22;;
27706;SDS011;36332;51.384;0.040;2023-02-13T00:10:44;88.38;;;41.35;;
27706;SDS011;36332;51.384;0.040;2023-02-13T00:13:12;81.72;;;41.15;;
27706;SDS011;36332;51.384;0.040;2023-02-13T00:15:40;82.38;;;39.22;;
27706;SDS011;36332;51.384;0.040;2023-02-13T00:18:07;83.20;;;39.38;;
27706;SDS011;36332;51.384;0.040;2023-02-13T00:20:35;72.68;;;36.65;;
27706;SDS011;36332;51.384;0.040;2023-02-13T00:23:02;81.13;;;38.25;;
27706;SDS011;36332;51.384;0.040;2023-02-13T00:25:30;77.68;;;38.35;;
27706;SDS011;36332;51.384;0.040;2023-02-13T00:27:57;79.78;;;38.70;;
27706;SDS011;36332;51.384;0.040;2023-02-13T00:30:26;81.00;;;41.45;;
27706;SDS011;36332;51.384;0.040;2023-02-13T00:32:54;82.82;;;38.58;;
27706;SDS011;36332;51.384;0.040;2023-02-13T00:35:23;74.57;;;39.22;;
27706;SDS011;36332;51.384;0.040;2023-02-13T00:37:51;79.60;;;38.78;;
27706;SDS011;36332;51.384;0.040;2023-02-13T00:40:23;79.93;;;38.08;;
27706;SDS011;36332;51.384;0.040;2023-02-13T00:42:51;74.63;;;35.63;;
27706;SDS011;36332;51.384;0.040;2023-02-13T00:45:18;74.35;;;34.92;;
27706;SDS011;36332;51.384;0.040;2023-02-13T00:47:46;73.63;;;35.97;;
27706;SDS011;36332;51.384;0.040;2023-02-13T00:50:14;75.55;;;35.72;;
27706;SDS011;36332;51.384;0.040;2023-02-13T00:52:41;68.22;;;33.63;;
27706;SDS011;36332;51.384;0.040;2023-02-13T00:55:11;68.22;;;32.42;;
27706;SDS011;36332;51.384;0.040;2023-02-13T00:57:39;65.78;;;32.70;;
27706;SDS011;36332;51.384;0.040;2023-02-13T01:00:06;65.25;;;33.38;;
27706;SDS011;36332;51.384;0.040;2023-02-13T01:02:34;67.15;;;32.53;;
27706;SDS011;36332;51.384;0.040;2023-02-13T01:05:02;64.00;;;32.95;;
27706;SDS011;36332;51.384;0.040;2023-02-13T01:07:30;63.60;;;31.55;;
27706;SDS011;36332;51.384;0.040;2023-02-13T01:09:57;61.58;;;31.05;;
27706;SDS011;36332;51.384;0.040;2023-02-13T01:12:26;67.90;;;33.83;;
27706;SDS011;36332;51.384;0.040;2023-02-13T01:14:53;59.63;;;30.67;;
27706;SDS011;36332;51.384;0.040;2023-02-13T01:17:21;62.30;;;32.35;;
27706;SDS011;36332;51.384;0.040;2023-02-13T01:19:49;65.40;;;31.40;;
27706;SDS011;36332;51.384;0.040;2023-02-13T01:22:17;58.28;;;30.50;;
27706;SDS011;36332;51.384;0.040;2023-02-13T01:24:48;61.40;;;31.30;;
27706;SDS011;36332;51.384;0.040;2023-02-13T01:27:16;58.72;;;31.70;;
27706;SDS011;36332;51.384;0.040;2023-02-13T01:29:44;59.72;;;30.20;;
27706;SDS011;36332;51.384;0.040;2023-02-13T01:32:12;57.05;;;30.65;;
27706;SDS011;36332;51.384;0.040;2023-02-13T01:34:40;57.03;;;29.13;;
27706;SDS011;36332;51.384;0.040;2023-02-13T01:37:11;63.30;;;28.98;;
27706;SDS011;36332;51.384;0.040;2023-02-13T01:39:39;57.42;;;29.63;;
27706;SDS011;36332;51.384;0.040;2023-02-13T01:42:20;59.65;;;29.55;;
27706;SDS011;36332;51.384;0.040;2023-02-13T01:44:57;66.05;;;31.75;;
27706;SDS011;36332;51.384;0.040;2023-02-13T01:50:09;59.08;;;28.63;;
27706;SDS011;36332;51.384;0.040;2023-02-13T01:52:42;60.00;;;31.60;;
27706;SDS011;36332;51.384;0.040;2023-02-13T01:55:14;59.97;;;31.80;;
27706;SDS011;36332;51.384;0.040;2023-02-13T01:57:43;58.75;;;31.08;;
27706;SDS011;36332;51.384;0.040;2023-02-13T02:00:17;55.08;;;27.90;;
27706;SDS011;36332;51.384;0.040;2023-02-13T02:02:55;60.17;;;30.63;;
27706;SDS011;36332;51.384;0.040;2023-02-13T02:05:27;55.95;;;30.00;;
27706;SDS011;36332;51.384;0.040;2023-02-13T02:07:58;61.20;;;31.08;;
27706;SDS011;36332;51.384;0.040;2023-02-13T02:10:28;63.58;;;31.42;;
27706;SDS011;36332;51.384;0.040;2023-02-13T02:13:04;60.05;;;30.65;;
27706;SDS011;36332;51.384;0.040;2023-02-13T02:15:40;61.38;;;31.55;;
27706;SDS011;36332;51.384;0.040;2023-02-13T02:18:23;60.53;;;31.27;;
27706;SDS011;36332;51.384;0.040;2023-02-13T02:21:14;58.95;;;30.52;;
27706;SDS011;36332;51.384;0.040;2023-02-13T02:24:02;58.25;;;30.15;;
27706;SDS011;36332;51.384;0.040;2023-02-13T02:34:27;60.25;;;30.90;;
27706;SDS011;36332;51.384;0.040;2023-02-13T02:46:09;58.05;;;30.13;;
27706;SDS011;36332;51.384;0.040;2023-02-13T02:48:55;56.55;;;29.67;;
27706;SDS011;36332;51.384;0.040;2023-02-13T02:55:04;57.47;;;31.25;;
27706;SDS011;36332;51.384;0.040;2023-02-13T02:57:58;62.38;;;30.48;;
27706;SDS011;36332;51.384;0.040;2023-02-13T03:00:56;65.18;;;29.52;;
27706;SDS011;36332;51.384;0.040;2023-02-13T03:03:45;63.00;;;30.58;;
27706;SDS011;36332;51.384;0.040;2023-02-13T03:06:37;66.28;;;31.27;;
27706;SDS011;36332;51.384;0.040;2023-02-13T03:09:14;62.17;;;30.90;;
27706;SDS011;36332;51.384;0.040;2023-02-13T03:12:11;57.85;;;28.92;;
27706;SDS011;36332;51.384;0.040;2023-02-13T03:15:02;63.33;;;29.92;;
27706;SDS011;36332;51.384;0.040;2023-02-13T03:17:30;61.03;;;28.67;;
27706;SDS011;36332;51.384;0.040;2023-02-13T03:29:19;67.18;;;32.50;;
27706;SDS011;36332;51.384;0.040;2023-02-13T03:35:29;68.70;;;31.20;;
27706;SDS011;36332;51.384;0.040;2023-02-13T03:41:44;65.25;;;31.25;;
27706;SDS011;36332;51.384;0.040;2023-02-13T03:44:26;68.10;;;31.63;;
27706;SDS011;36332;51.384;0.040;2023-02-13T03:47:08;66.20;;;31.63;;
27706;SDS011;36332;51.384;0.040;2023-02-13T03:49:40;65.47;;;31.17;;
27706;SDS011;36332;51.384;0.040;2023-02-13T03:52:32;68.78;;;31.55;;
27706;SDS011;36332;51.384;0.040;2023-02-13T03:55:20;68.82;;;31.92;;
27706;SDS011;36332;51.384;0.040;2023-02-13T03:58:11;67.10;;;32.10;;
27706;SDS011;36332;51.384;0.040;2023-02-13T04:01:02;61.05;;;30.75;;
27706;SDS011;36332;51.384;0.040;2023-02-13T04:03:39;65.25;;;31.25;;
27706;SDS011;36332;51.384;0.040;2023-02-13T04:06:19;65.38;;;31.55;;
27706;SDS011;36332;51.384;0.040;2023-02-13T04:08:53;74.53;;;34.30;;
27706;SDS011;36332;51.384;0.040;2023-02-13T04:11:29;63.05;;;30.63;;
27706;SDS011;36332;51.384;0.040;2023-02-13T04:14:14;62.35;;;31.13;;
27706;SDS011;36332;51.384;0.040;2023-02-13T04:16:52;61.17;;;29.15;;
27706;SDS011;36332;51.384;0.040;2023-02-13T04:19:34;62.10;;;31.27;;
27706;SDS011;36332;51.384;0.040;2023-02-13T04:22:03;63.80;;;30.50;;
27706;SDS011;36332;51.384;0.040;2023-02-13T04:24:31;62.58;;;31.00;;
27706;SDS011;36332;51.384;0.040;2023-02-13T04:26:58;64.60;;;30.67;;
27706;SDS011;36332;51.384;0.040;2023-02-13T04:29:26;58.67;;;30.65;;
27706;SDS011;36332;51.384;0.040;2023-02-13T04:31:54;64.18;;;29.90;;
27706;SDS011;36332;51.384;0.040;2023-02-13T04:34:22;63.30;;;29.50;;
27706;SDS011;36332;51.384;0.040;2023-02-13T04:36:49;61.53;;;29.33;;
27706;SDS011;36332;51.384;0.040;2023-02-13T04:39:17;63.97;;;30.40;;
27706;SDS011;36332;51.384;0.040;2023-02-13T04:41:45;66.00;;;31.27;;
27706;SDS011;36332;51.384;0.040;2023-02-13T04:44:13;63.95;;;31.48;;
27706;SDS011;36332;51.384;0.040;2023-02-13T04:46:40;67.35;;;30.92;;
27706;SDS011;36332;51.384;0.040;2023-02-13T04:49:09;59.70;;;29.23;;
27706;SDS011;36332;51.384;0.040;2023-02-13T04:51:37;61.10;;;28.25;;
27706;SDS011;36332;51.384;0.040;2023-02-13T04:54:05;66.30;;;30.98;;
27706;SDS011;36332;51.384;0.040;2023-02-13T04:56:32;68.90;;;31.50;;
27706;SDS011;36332;51.384;0.040;2023-02-13T04:59:00;60.65;;;30.83;;
27706;SDS011;36332;51.384;0.040;2023-02-13T05:01:28;70.50;;;31.40;;
27706;SDS011;36332;51.384;0.040;2023-02-13T05:03:56;63.53;;;30.35;;
27706;SDS011;36332;51.384;0.040;2023-02-13T05:06:23;60.78;;;29.98;;
27706;SDS011;36332;51.384;0.040;2023-02-13T05:08:51;66.13;;;30.45;;
27706;SDS011;36332;51.384;0.040;2023-02-13T05:11:19;69.30;;;30.17;;
27706;SDS011;36332;51.384;0.040;2023-02-13T05:13:46;77.22;;;30.27;;
27706;SDS011;36332;51.384;0.040;2023-02-13T05:16:14;63.67;;;28.17;;
27706;SDS011;36332;51.384;0.040;2023-02-13T05:18:42;71.38;;;32.22;;
27706;SDS011;36332;51.384;0.040;2023-02-13T05:21:10;66.80;;;28.33;;
27706;SDS011;36332;51.384;0.040;2023-02-13T05:23:56;68.37;;;29.80;;
27706;SDS011;36332;51.384;0.040;2023-02-13T05:26:23;68.72;;;30.30;;
27706;SDS011;36332;51.384;0.040;2023-02-13T05:28:51;72.43;;;30.52;;
27706;SDS011;36332;51.384;0.040;2023-02-13T05:31:37;62.10;;;30.30;;
27706;SDS011;36332;51.384;0.040;2023-02-13T05:34:05;66.40;;;29.58;;
27706;SDS011;36332;51.384;0.040;2023-02-13T05:36:33;68.63;;;28.70;;
27706;SDS011;36332;51.384;0.040;2023-02-13T05:39:00;65.20;;;30.95;;
27706;SDS011;36332;51.384;0.040;2023-02-13T05:41:28;58.53;;;27.67;;
27706;SDS011;36332;51.384;0.040;2023-02-13T05:43:56;68.90;;;29.40;;
27706;SDS011;36332;51.384;0.040;2023-02-13T05:46:23;69.10;;;31.48;;
27706;SDS011;36332;51.384;0.040;2023-02-13T05:48:51;69.10;;;29.65;;
27706;SDS011;36332;51.384;0.040;2023-02-13T05:51:19;66.22;;;30.30;;
27706;SDS011;36332;51.384;0.040;2023-02-13T05:53:47;71.65;;;31.35;;
27706;SDS011;36332;51.384;0.040;2023-02-13T05:56:15;66.63;;;27.90;;
27706;SDS011;36332;51.384;0.040;2023-02-13T05:58:42;65.40;;;29.25;;
27706;SDS011;36332;51.384;0.040;2023-02-13T06:01:11;65.53;;;27.67;;
27706;SDS011;36332;51.384;0.040;2023-02-13T06:03:39;62.90;;;28.20;;
27706;SDS011;36332;51.384;0.040;2023-02-13T06:06:06;72.47;;;30.00;;
27706;SDS011;36332;51.384;0.040;2023-02-13T06:08:34;60.40;;;27.80;;
27706;SDS011;36332;51.384;0.040;2023-02-13T06:11:02;65.38;;;27.90;;
27706;SDS011;36332;51.384;0.040;2023-02-13T06:13:30;75.43;;;30.67;;
27706;SDS011;36332;51.384;0.040;2023-02-13T06:15:58;62.20;;;27.60;;
27706;SDS011;36332;51.384;0.040;2023-02-13T06:18:26;66.93;;;28.52;;
27706;SDS011;36332;51.384;0.040;2023-02-13T06:20:53;63.53;;;28.90;;
27706;SDS011;36332;51.384;0.040;2023-02-13T06:23:21;67.43;;;28.55;;
27706;SDS011;36332;51.384;0.040;2023-02-13T06:25:49;72.57;;;31.85;;
27706;SDS011;36332;51.384;0.040;2023-02-13T06:28:17;68.35;;;29.27;;
27706;SDS011;36332;51.384;0.040;2023-02-13T06:30:44;61.72;;;28.55;;
27706;SDS011;36332;51.384;0.040;2023-02-13T06:33:12;68.25;;;30.25;;
27706;SDS011;36332;51.384;0.040;2023-02-13T06:35:39;69.70;;;29.83;;
27706;SDS011;36332;51.384;0.040;2023-02-13T06:38:07;66.40;;;29.33;;
27706;SDS011;36332;51.384;0.040;2023-02-13T06:40:35;69.00;;;28.23;;
27706;SDS011;36332;51.384;0.040;2023-02-13T06:43:02;68.80;;;29.88;;
27706;SDS011;36332;51.384;0.040;2023-02-13T06:45:30;67.75;;;28.20;;
27706;SDS011;36332;51.384;0.040;2023-02-13T06:47:58;72.95;;;30.60;;
27706;SDS011;36332;51.384;0.040;2023-02-13T06:50:25;69.32;;;30.17;;
27706;SDS011;36332;51.384;0.040;2023-02-13T06:52:52;75.82;;;31.15;;
27706;SDS011;36332;51.384;0.040;2023-02-13T06:55:20;73.45;;;30.58;;
27706;SDS011;36332;51.384;0.040;2023-02-13T06:57:48;72.30;;;31.20;;
27706;SDS011;36332;51.384;0.040;2023-02-13T07:00:16;68.53;;;29.27;;
27706;SDS011;36332;51.384;0.040;2023-02-13T07:02:45;73.60;;;30.08;;
27706;SDS011;36332;51.384;0.040;2023-02-13T07:05:13;71.72;;;30.05;;
27706;SDS011;36332;51.384;0.040;2023-02-13T07:07:41;76.50;;;31.60;;
27706;SDS011;36332;51.384;0.040;2023-02-13T07:10:10;80.18;;;33.47;;
27706;SDS011;36332;51.384;0.040;2023-02-13T07:12:39;75.13;;;33.30;;
27706;SDS011;36332;51.384;0.040;2023-02-13T07:15:07;72.60;;;31.55;;
27706;SDS011;36332;51.384;0.040;2023-02-13T07:17:35;77.53;;;31.77;;
27706;SDS011;36332;51.384;0.040;2023-02-13T07:20:03;80.03;;;29.88;;
27706;SDS011;36332;51.384;0.040;2023-02-13T07:22:32;79.43;;;36.45;;
27706;SDS011;36332;51.384;0.040;2023-02-13T07:25:00;74.72;;;31.70;;
27706;SDS011;36332;51.384;0.040;2023-02-13T07:27:28;83.22;;;33.50;;
27706;SDS011;36332;51.384;0.040;2023-02-13T07:29:55;76.18;;;31.80;;
27706;SDS011;36332;51.384;0.040;2023-02-13T07:32:24;86.65;;;34.22;;
27706;SDS011;36332;51.384;0.040;2023-02-13T07:34:51;74.47;;;32.63;;
27706;SDS011;36332;51.384;0.040;2023-02-13T07:37:28;73.90;;;31.33;;
27706;SDS011;36332;51.384;0.040;2023-02-13T07:39:57;83.57;;;32.15;;
27706;SDS011;36332;51.384;0.040;2023-02-13T07:42:25;86.22;;;33.15;;
27706;SDS011;36332;51.384;0.040;2023-02-13T07:44:53;76.05;;;32.85;;
27706;SDS011;36332;51.384;0.040;2023-02-13T07:47:21;82.47;;;34.42;;
27706;SDS011;36332;51.384;0.040;2023-02-13T07:49:48;80.20;;;33.65;;
27706;SDS011;36332;51.384;0.040;2023-02-13T07:52:16;80.28;;;34.03;;
27706;SDS011;36332;51.384;0.040;2023-02-13T07:54:43;85.75;;;34.40;;
27706;SDS011;36332;51.384;0.040;2023-02-13T07:57:14;88.10;;;34.53;;
27706;SDS011;36332;51.384;0.040;2023-02-13T07:59:42;87.18;;;35.50;;
27706;SDS011;36332;51.384;0.040;2023-02-13T08:02:10;84.47;;;35.20;;
27706;SDS011;36332;51.384;0.040;2023-02-13T08:04:40;88.13;;;34.55;;
27706;SDS011;36332;51.384;0.040;2023-02-13T08:07:12;83.20;;;37.00;;
27706;SDS011;36332;51.384;0.040;2023-02-13T08:09:42;87.28;;;36.75;;
27706;SDS011;36332;51.384;0.040;2023-02-13T08:12:30;87.07;;;36.85;;
27706;SDS011;36332;51.384;0.040;2023-02-13T08:15:00;90.70;;;37.78;;
27706;SDS011;36332;51.384;0.040;2023-02-13T08:17:29;88.60;;;37.05;;
27706;SDS011;36332;51.384;0.040;2023-02-13T08:19:57;88.32;;;36.70;;
27706;SDS011;36332;51.384;0.040;2023-02-13T08:22:25;91.82;;;38.08;;
27706;SDS011;36332;51.384;0.040;2023-02-13T08:24:52;91.72;;;38.50;;
27706;SDS011;36332;51.384;0.040;2023-02-13T08:27:20;89.97;;;36.60;;
27706;SDS011;36332;51.384;0.040;2023-02-13T08:29:49;87.60;;;37.45;;
27706;SDS011;36332;51.384;0.040;2023-02-13T08:32:17;81.40;;;35.33;;
27706;SDS011;36332;51.384;0.040;2023-02-13T08:34:44;93.15;;;39.25;;
27706;SDS011;36332;51.384;0.040;2023-02-13T08:37:12;84.50;;;36.88;;
27706;SDS011;36332;51.384;0.040;2023-02-13T08:39:39;87.72;;;37.60;;
27706;SDS011;36332;51.384;0.040;2023-02-13T08:42:07;92.50;;;36.60;;
27706;SDS011;36332;51.384;0.040;2023-02-13T08:44:35;85.18;;;38.47;;
27706;SDS011;36332;51.384;0.040;2023-02-13T08:47:07;88.68;;;38.55;;
27706;SDS011;36332;51.384;0.040;2023-02-13T08:49:35;96.32;;;40.42;;
27706;SDS011;36332;51.384;0.040;2023-02-13T08:52:03;92.93;;;38.15;;
27706;SDS011;36332;51.384;0.040;2023-02-13T08:54:32;88.03;;;38.10;;
27706;SDS011;36332;51.384;0.040;2023-02-13T08:57:02;88.85;;;37.90;;
27706;SDS011;36332;51.384;0.040;2023-02-13T08:59:29;90.10;;;40.67;;
27706;SDS011;36332;51.384;0.040;2023-02-13T09:01:57;87.22;;;39.75;;
27706;SDS011;36332;51.384;0.040;2023-02-13T09:04:24;90.43;;;38.10;;
27706;SDS011;36332;51.384;0.040;2023-02-13T09:06:52;91.50;;;40.28;;
27706;SDS011;36332;51.384;0.040;2023-02-13T09:09:20;84.32;;;37.33;;
27706;SDS011;36332;51.384;0.040;2023-02-13T09:11:47;86.22;;;38.45;;
27706;SDS011;36332;51.384;0.040;2023-02-13T09:14:16;83.45;;;38.05;;
27706;SDS011;36332;51.384;0.040;2023-02-13T09:16:44;79.25;;;37.75;;
27706;SDS011;36332;51.384;0.040;2023-02-13T09:19:11;77.30;;;36.47;;
27706;SDS011;36332;51.384;0.040;2023-02-13T09:21:39;83.22;;;37.67;;
27706;SDS011;36332;51.384;0.040;2023-02-13T09:24:07;83.82;;;38.50;;
27706;SDS011;36332;51.384;0.040;2023-02-13T09:26:36;78.53;;;37.17;;
27706;SDS011;36332;51.384;0.040;2023-02-13T09:29:03;80.07;;;36.47;;
27706;SDS011;36332;51.384;0.040;2023-02-13T09:31:31;70.68;;;35.67;;
27706;SDS011;36332;51.384;0.040;2023-02-13T09:33:59;63.80;;;32.00;;
27706;SDS011;36332;51.384;0.040;2023-02-13T09:36:26;58.13;;;29.52;;
27706;SDS011;36332;51.384;0.040;2023-02-13T09:38:55;57.65;;;29.08;;
27706;SDS011;36332;51.384;0.040;2023-02-13T09:41:28;56.45;;;27.38;;
27706;SDS011;36332;51.384;0.040;2023-02-13T09:47:48;54.28;;;28.13;;
27706;SDS011;36332;51.384;0.040;2023-02-13T09:49:59;52.00;;;25.38;;
27706;SDS011;36332;51.384;0.040;2023-02-13T09:52:38;50.67;;;25.67;;
27706;SDS011;36332;51.384;0.040;2023-02-13T09:55:23;50.97;;;27.25;;
27706;SDS011;36332;51.384;0.040;2023-02-13T09:58:38;51.45;;;25.65;;
27706;SDS011;36332;51.384;0.040;2023-02-13T10:01:17;53.58;;;26.92;;
27706;SDS011;36332;51.384;0.040;2023-02-13T10:04:07;53.45;;;28.17;;
27706;SDS011;36332;51.384;0.040;2023-02-13T10:06:45;55.78;;;26.35;;
27706;SDS011;36332;51.384;0.040;2023-02-13T10:09:20;52.33;;;25.48;;
27706;SDS011;36332;51.384;0.040;2023-02-13T10:14:48;46.35;;;23.75;;
27706;SDS011;36332;51.384;0.040;2023-02-13T10:17:31;44.30;;;23.42;;
27706;SDS011;36332;51.384;0.040;2023-02-13T10:20:02;44.47;;;23.50;;
27706;SDS011;36332;51.384;0.040;2023-02-13T10:22:41;48.10;;;23.17;;
27706;SDS011;36332;51.384;0.040;2023-02-13T10:25:20;41.83;;;22.05;;
27706;SDS011;36332;51.384;0.040;2023-02-13T10:27:56;45.95;;;25.38;;
27706;SDS011;36332;51.384;0.040;2023-02-13T10:30:31;45.53;;;23.45;;
27706;SDS011;36332;51.384;0.040;2023-02-13T10:35:51;43.65;;;22.83;;
27706;SDS011;36332;51.384;0.040;2023-02-13T10:38:30;40.97;;;21.58;;
27706;SDS011;36332;51.384;0.040;2023-02-13T10:43:38;43.03;;;21.13;;
27706;SDS011;36332;51.384;0.040;2023-02-13T10:55:00;40.38;;;21.65;;
27706;SDS011;36332;51.384;0.040;2023-02-13T10:57:41;37.63;;;20.58;;
27706;SDS011;36332;51.384;0.040;2023-02-13T11:00:36;43.42;;;20.83;;
27706;SDS011;36332;51.384;0.040;2023-02-13T11:03:26;33.03;;;20.13;;
27706;SDS011;36332;51.384;0.040;2023-02-13T11:05:55;37.65;;;21.08;;
27706;SDS011;36332;51.384;0.040;2023-02-13T11:08:32;39.22;;;21.63;;
27706;SDS011;36332;51.384;0.040;2023-02-13T11:11:00;45.53;;;21.30;;
27706;SDS011;36332;51.384;0.040;2023-02-13T11:13:28;34.55;;;19.92;;
27706;SDS011;36332;51.384;0.040;2023-02-13T11:18:29;34.45;;;18.83;;
27706;SDS011;36332;51.384;0.040;2023-02-13T11:23:37;40.33;;;20.63;;
27706;SDS011;36332;51.384;0.040;2023-02-13T11:28:43;35.45;;;19.98;;
27706;SDS011;36332;51.384;0.040;2023-02-13T11:31:35;35.08;;;20.92;;
27706;SDS011;36332;51.384;0.040;2023-02-13T11:37:15;34.28;;;21.42;;
27706;SDS011;36332;51.384;0.040;2023-02-13T11:40:03;31.08;;;19.77;;
27706;SDS011;36332;51.384;0.040;2023-02-13T11:42:56;33.55;;;20.15;;
27706;SDS011;36332;51.384;0.040;2023-02-13T11:45:24;33.65;;;20.33;;
27706;SDS011;36332;51.384;0.040;2023-02-13T11:47:53;36.33;;;21.73;;
27706;SDS011;36332;51.384;0.040;2023-02-13T11:50:27;37.70;;;21.88;;
27706;SDS011;36332;51.384;0.040;2023-02-13T11:53:01;37.75;;;22.10;;
27706;SDS011;36332;51.384;0.040;2023-02-13T11:55:33;38.63;;;22.52;;
27706;SDS011;36332;51.384;0.040;2023-02-13T12:00:38;38.30;;;22.83;;
27706;SDS011;36332;51.384;0.040;2023-02-13T12:06:34;37.33;;;22.70;;
27706;SDS011;36332;51.384;0.040;2023-02-13T12:08:40;39.08;;;24.70;;
27706;SDS011;36332;51.384;0.040;2023-02-13T12:11:21;43.13;;;24.00;;
27706;SDS011;36332;51.384;0.040;2023-02-13T12:13:59;38.08;;;22.10;;
27706;SDS011;36332;51.384;0.040;2023-02-13T12:16:34;45.28;;;26.33;;
27706;SDS011;36332;51.384;0.040;2023-02-13T12:19:12;41.80;;;23.10;;
27706;SDS011;36332;51.384;0.040;2023-02-13T12:21:57;36.33;;;23.50;;
27706;SDS011;36332;51.384;0.040;2023-02-13T12:27:27;37.45;;;24.20;;
27706;SDS011;36332;51.384;0.040;2023-02-13T12:35:48;39.28;;;20.88;;
27706;SDS011;36332;51.384;0.040;2023-02-13T12:38:43;36.78;;;23.40;;
27706;SDS011;36332;51.384;0.040;2023-02-13T12:54:51;36.22;;;22.38;;
27706;SDS011;36332;51.384;0.040;2023-02-13T13:00:22;34.90;;;22.98;;
27706;SDS011;36332;51.384;0.040;2023-02-13T13:06:12;42.13;;;23.38;;
27706;SDS011;36332;51.384;0.040;2023-02-13T13:11:42;32.97;;;21.73;;
27706;SDS011;36332;51.384;0.040;2023-02-13T13:22:41;38.17;;;24.75;;
27706;SDS011;36332;51.384;0.040;2023-02-13T13:25:22;36.65;;;25.25;;
27706;SDS011;36332;51.384;0.040;2023-02-13T13:28:15;37.83;;;24.10;;
27706;SDS011;36332;51.384;0.040;2023-02-13T13:30:47;36.50;;;23.10;;
27706;SDS011;36332;51.384;0.040;2023-02-13T13:36:10;34.60;;;22.80;;
27706;SDS011;36332;51.384;0.040;2023-02-13T13:44:03;33.10;;;21.88;;
27706;SDS011;36332;51.384;0.040;2023-02-13T13:46:51;33.13;;;21.83;;
27706;SDS011;36332;51.384;0.040;2023-02-13T13:54:54;29.48;;;19.83;;
27706;SDS011;36332;51.384;0.040;2023-02-13T13:57:24;25.50;;;19.75;;
27706;SDS011;36332;51.384;0.040;2023-02-13T14:00:00;30.73;;;20.92;;
27706;SDS011;36332;51.384;0.040;2023-02-13T14:02:39;32.13;;;19.92;;
27706;SDS011;36332;51.384;0.040;2023-02-13T14:07:57;30.52;;;20.98;;
27706;SDS011;36332;51.384;0.040;2023-02-13T14:25:47;27.60;;;20.15;;
27706;SDS011;36332;51.384;0.040;2023-02-13T14:30:49;35.90;;;22.88;;
27706;SDS011;36332;51.384;0.040;2023-02-13T14:33:29;33.03;;;21.20;;
27706;SDS011;36332;51.384;0.040;2023-02-13T14:38:32;40.90;;;29.83;;
27706;SDS011;36332;51.384;0.040;2023-02-13T14:41:01;64.93;;;43.55;;
27706;SDS011;36332;51.384;0.040;2023-02-13T14:43:31;43.55;;;28.15;;
27706;SDS011;36332;51.384;0.040;2023-02-13T14:51:39;39.63;;;24.75;;
27706;SDS011;36332;51.384;0.040;2023-02-13T14:54:26;35.35;;;23.17;;
27706;SDS011;36332;51.384;0.040;2023-02-13T14:57:05;34.65;;;23.42;;
27706;SDS011;36332;51.384;0.040;2023-02-13T14:59:52;35.53;;;24.73;;
27706;SDS011;36332;51.384;0.040;2023-02-13T15:02:26;33.53;;;24.02;;
27706;SDS011;36332;51.384;0.040;2023-02-13T15:05:03;38.40;;;25.02;;
27706;SDS011;36332;51.384;0.040;2023-02-13T15:07:35;39.28;;;25.25;;
27706;SDS011;36332;51.384;0.040;2023-02-13T15:10:46;30.45;;;22.58;;
27706;SDS011;36332;51.384;0.040;2023-02-13T15:13:13;34.20;;;22.48;;
27706;SDS011;36332;51.384;0.040;2023-02-13T15:15:46;35.05;;;24.10;;
27706;SDS011;36332;51.384;0.040;2023-02-13T15:18:21;35.78;;;23.25;;
27706;SDS011;36332;51.384;0.040;2023-02-13T15:20:59;33.10;;;23.52;;
27706;SDS011;36332;51.384;0.040;2023-02-13T15:23:28;32.75;;;22.75;;
27706;SDS011;36332;51.384;0.040;2023-02-13T15:25:59;34.25;;;23.67;;
27706;SDS011;36332;51.384;0.040;2023-02-13T15:28:33;34.67;;;24.55;;
27706;SDS011;36332;51.384;0.040;2023-02-13T15:31:04;33.65;;;22.40;;
27706;SDS011;36332;51.384;0.040;2023-02-13T15:33:46;33.15;;;23.30;;
27706;SDS011;36332;51.384;0.040;2023-02-13T15:36:20;38.92;;;25.05;;
27706;SDS011;36332;51.384;0.040;2023-02-13T15:38:58;30.25;;;21.70;;
27706;SDS011;36332;51.384;0.040;2023-02-13T15:41:28;32.05;;;21.60;;
27706;SDS011;36332;51.384;0.040;2023-02-13T15:43:59;33.90;;;21.13;;
27706;SDS011;36332;51.384;0.040;2023-02-13T15:46:31;32.15;;;22.52;;
27706;SDS011;36332;51.384;0.040;2023-02-13T15:49:13;31.60;;;22.50;;
27706;SDS011;36332;51.384;0.040;2023-02-13T15:51:43;34.22;;;23.42;;
27706;SDS011;36332;51.384;0.040;2023-02-13T15:54:20;36.42;;;23.40;;
27706;SDS011;36332;51.384;0.040;2023-02-13T15:56:52;36.70;;;24.38;;
27706;SDS011;36332;51.384;0.040;2023-02-13T15:59:22;38.47;;;25.08;;
27706;SDS011;36332;51.384;0.040;2023-02-13T16:01:55;32.45;;;23.90;;
27706;SDS011;36332;51.384;0.040;2023-02-13T16:04:24;38.65;;;25.23;;
27706;SDS011;36332;51.384;0.040;2023-02-13T16:06:54;40.83;;;27.70;;
27706;SDS011;36332;51.384;0.040;2023-02-13T16:09:30;40.35;;;25.73;;
27706;SDS011;36332;51.384;0.040;2023-02-13T16:14:30;41.85;;;24.75;;
27706;SDS011;36332;51.384;0.040;2023-02-13T16:17:05;48.00;;;26.60;;
27706;SDS011;36332;51.384;0.040;2023-02-13T16:25:22;43.50;;;25.35;;
27706;SDS011;36332;51.384;0.040;2023-02-13T16:28:13;42.53;;;25.90;;
27706;SDS011;36332;51.384;0.040;2023-02-13T16:30:45;51.42;;;26.98;;
27706;SDS011;36332;51.384;0.040;2023-02-13T16:33:19;48.80;;;25.63;;
27706;SDS011;36332;51.384;0.040;2023-02-13T16:35:50;49.60;;;25.73;;
27706;SDS011;36332;51.384;0.040;2023-02-13T16:40:58;48.92;;;27.55;;
27706;SDS011;36332;51.384;0.040;2023-02-13T16:43:35;42.70;;;25.17;;
27706;SDS011;36332;51.384;0.040;2023-02-13T16:48:39;50.42;;;26.83;;
27706;SDS011;36332;51.384;0.040;2023-02-13T16:51:11;53.95;;;27.90;;
27706;SDS011;36332;51.384;0.040;2023-02-13T16:53:39;48.55;;;26.63;;
27706;SDS011;36332;51.384;0.040;2023-02-13T16:56:09;52.28;;;27.90;;
27706;SDS011;36332;51.384;0.040;2023-02-13T16:58:38;49.67;;;25.42;;
27706;SDS011;36332;51.384;0.040;2023-02-13T17:01:06;49.67;;;26.02;;
27706;SDS011;36332;51.384;0.040;2023-02-13T17:03:33;49.63;;;26.38;;
27706;SDS011;36332;51.384;0.040;2023-02-13T17:06:02;56.28;;;29.48;;
27706;SDS011;36332;51.384;0.040;2023-02-13T17:08:30;52.63;;;29.60;;
27706;SDS011;36332;51.384;0.040;2023-02-13T17:11:06;55.22;;;28.95;;
27706;SDS011;36332;51.384;0.040;2023-02-13T17:13:34;42.85;;;20.88;;
27706;SDS011;36332;51.384;0.040;2023-02-13T17:16:01;59.33;;;28.55;;
27706;SDS011;36332;51.384;0.040;2023-02-13T17:18:29;53.30;;;28.63;;
27706;SDS011;36332;51.384;0.040;2023-02-13T17:20:56;52.42;;;28.30;;
27706;SDS011;36332;51.384;0.040;2023-02-13T17:23:24;54.88;;;28.75;;
27706;SDS011;36332;51.384;0.040;2023-02-13T17:25:53;52.65;;;29.23;;
27706;SDS011;36332;51.384;0.040;2023-02-13T17:28:24;58.30;;;28.52;;
27706;SDS011;36332;51.384;0.040;2023-02-13T17:30:55;61.00;;;31.38;;
27706;SDS011;36332;51.384;0.040;2023-02-13T17:33:27;58.22;;;29.20;;
27706;SDS011;36332;51.384;0.040;2023-02-13T17:35:56;88.38;;;44.50;;
27706;SDS011;36332;51.384;0.040;2023-02-13T17:38:24;107.35;;;56.80;;
27706;SDS011;36332;51.384;0.040;2023-02-13T17:40:52;109.45;;;55.97;;
27706;SDS011;36332;51.384;0.040;2023-02-13T17:43:19;117.55;;;56.10;;